<?xml version="1.0" encoding="utf-8"?>
<gpx xmlns:xsi="http://www.w3.org/2001/XMLSchema-instance" xmlns:xsd="http://www.w3.org/2001/XMLSchema" version="1.1" creator="Shapelink.com" xmlns="http://www.topografix.com/GPX/1/1" xmlns:gpxtpx="http://www.garmin.com/xmlschemas/TrackPointExtension/v1">
  <metadata>
    <name>Promenad 4.59 km, 2017-02-11</name>
    <desc></desc>
    <author><name>Morten Hedlund</name></author> 
    <time>2017-02-11T09:06:47Z</time>
  </metadata>
  <trk>
    <name>Promenad 4.59 km, 2017-02-11</name>
    <trkseg>
      <trkpt lat="59.027000924942" lon="12.223995322">
        <ele>74.4</ele>
        <time>2017-02-11T09:06:47Z</time>
      </trkpt>
      <trkpt lat="59.027170909874" lon="12.223813350951">
        <ele>73</ele>
        <time>2017-02-11T09:07:00Z</time>
      </trkpt>
      <trkpt lat="59.027393197862" lon="12.223950311197">
        <ele>109.6</ele>
        <time>2017-02-11T09:07:04Z</time>
      </trkpt>
      <trkpt lat="59.027575755644" lon="12.224023485184">
        <ele>121.4</ele>
        <time>2017-02-11T09:07:13Z</time>
      </trkpt>
      <trkpt lat="59.0276112949" lon="12.2243222161">
        <ele>117.8</ele>
        <time>2017-02-11T09:07:26Z</time>
      </trkpt>
      <trkpt lat="59.027612468366" lon="12.224349624913">
        <ele>116.8</ele>
        <time>2017-02-11T09:07:28Z</time>
      </trkpt>
      <trkpt lat="59.027737442495" lon="12.224578115507">
        <ele>109.6</ele>
        <time>2017-02-11T09:07:43Z</time>
      </trkpt>
      <trkpt lat="59.027842467702" lon="12.224880785916">
        <ele>104.8</ele>
        <time>2017-02-11T09:07:56Z</time>
      </trkpt>
      <trkpt lat="59.027829140481" lon="12.225257971416">
        <ele>101.6</ele>
        <time>2017-02-11T09:08:08Z</time>
      </trkpt>
      <trkpt lat="59.027828889024" lon="12.225629541043">
        <ele>98.8</ele>
        <time>2017-02-11T09:08:20Z</time>
      </trkpt>
      <trkpt lat="59.027802486039" lon="12.225999769566">
        <ele>97.8</ele>
        <time>2017-02-11T09:08:32Z</time>
      </trkpt>
      <trkpt lat="59.027717912668" lon="12.226298584301">
        <ele>97.8</ele>
        <time>2017-02-11T09:08:44Z</time>
      </trkpt>
      <trkpt lat="59.027780106366" lon="12.22664819335">
        <ele>96.4</ele>
        <time>2017-02-11T09:08:57Z</time>
      </trkpt>
      <trkpt lat="59.027800055288" lon="12.227019762977">
        <ele>95.6</ele>
        <time>2017-02-11T09:09:10Z</time>
      </trkpt>
      <trkpt lat="59.027747333137" lon="12.227354619882">
        <ele>96</ele>
        <time>2017-02-11T09:09:22Z</time>
      </trkpt>
      <trkpt lat="59.027652198572" lon="12.227664163449">
        <ele>96.2</ele>
        <time>2017-02-11T09:09:35Z</time>
      </trkpt>
      <trkpt lat="59.02760207481" lon="12.22800941391">
        <ele>96</ele>
        <time>2017-02-11T09:09:48Z</time>
      </trkpt>
      <trkpt lat="59.027588328494" lon="12.22838576122">
        <ele>97.2</ele>
        <time>2017-02-11T09:10:01Z</time>
      </trkpt>
      <trkpt lat="59.027630321813" lon="12.228745931463">
        <ele>98.2</ele>
        <time>2017-02-11T09:10:14Z</time>
      </trkpt>
      <trkpt lat="59.027637111152" lon="12.229098306539">
        <ele>98.6</ele>
        <time>2017-02-11T09:10:26Z</time>
      </trkpt>
      <trkpt lat="59.027598470593" lon="12.22943768967">
        <ele>99.4</ele>
        <time>2017-02-11T09:10:38Z</time>
      </trkpt>
      <trkpt lat="59.02751993219" lon="12.229764248494">
        <ele>100.4</ele>
        <time>2017-02-11T09:10:50Z</time>
      </trkpt>
      <trkpt lat="59.027409626386" lon="12.23003951009">
        <ele>101.2</ele>
        <time>2017-02-11T09:11:01Z</time>
      </trkpt>
      <trkpt lat="59.027265290068" lon="12.230288620158">
        <ele>100.2</ele>
        <time>2017-02-11T09:11:13Z</time>
      </trkpt>
      <trkpt lat="59.027124725605" lon="12.230524654462">
        <ele>99.6</ele>
        <time>2017-02-11T09:11:25Z</time>
      </trkpt>
      <trkpt lat="59.026978712907" lon="12.230751887771">
        <ele>99</ele>
        <time>2017-02-11T09:11:37Z</time>
      </trkpt>
      <trkpt lat="59.026848542" lon="12.231007368083">
        <ele>98</ele>
        <time>2017-02-11T09:11:49Z</time>
      </trkpt>
      <trkpt lat="59.026699176542" lon="12.231251616649">
        <ele>96.8</ele>
        <time>2017-02-11T09:12:01Z</time>
      </trkpt>
      <trkpt lat="59.026641173794" lon="12.231311379596">
        <ele>97.2</ele>
        <time>2017-02-11T09:12:05Z</time>
      </trkpt>
      <trkpt lat="59.026452245768" lon="12.231362509186">
        <ele>95</ele>
        <time>2017-02-11T09:12:17Z</time>
      </trkpt>
      <trkpt lat="59.026262060457" lon="12.23140073065">
        <ele>92.4</ele>
        <time>2017-02-11T09:12:29Z</time>
      </trkpt>
      <trkpt lat="59.026074222078" lon="12.231506258771">
        <ele>91.2</ele>
        <time>2017-02-11T09:12:41Z</time>
      </trkpt>
      <trkpt lat="59.025907589906" lon="12.231667861803">
        <ele>91.4</ele>
        <time>2017-02-11T09:12:52Z</time>
      </trkpt>
      <trkpt lat="59.025750177824" lon="12.231883611909">
        <ele>89</ele>
        <time>2017-02-11T09:13:05Z</time>
      </trkpt>
      <trkpt lat="59.025618833451" lon="12.232164154102">
        <ele>88</ele>
        <time>2017-02-11T09:13:17Z</time>
      </trkpt>
      <trkpt lat="59.025512970054" lon="12.232456682412">
        <ele>89</ele>
        <time>2017-02-11T09:13:28Z</time>
      </trkpt>
      <trkpt lat="59.025458236247" lon="12.232795311172">
        <ele>88.8</ele>
        <time>2017-02-11T09:13:39Z</time>
      </trkpt>
      <trkpt lat="59.025443316465" lon="12.233162773668">
        <ele>89</ele>
        <time>2017-02-11T09:13:51Z</time>
      </trkpt>
      <trkpt lat="59.025341560199" lon="12.233452452132">
        <ele>88.8</ele>
        <time>2017-02-11T09:14:02Z</time>
      </trkpt>
      <trkpt lat="59.025164785928" lon="12.233561500651">
        <ele>88.8</ele>
        <time>2017-02-11T09:14:14Z</time>
      </trkpt>
      <trkpt lat="59.024973678608" lon="12.233552615837">
        <ele>87.6</ele>
        <time>2017-02-11T09:14:26Z</time>
      </trkpt>
      <trkpt lat="59.024784415306" lon="12.233618078476">
        <ele>87.6</ele>
        <time>2017-02-11T09:14:38Z</time>
      </trkpt>
      <trkpt lat="59.024611245252" lon="12.233713380679">
        <ele>87.6</ele>
        <time>2017-02-11T09:14:49Z</time>
      </trkpt>
      <trkpt lat="59.024430782945" lon="12.233827206881">
        <ele>88.2</ele>
        <time>2017-02-11T09:15:01Z</time>
      </trkpt>
      <trkpt lat="59.024262893488" lon="12.23398570861">
        <ele>88.2</ele>
        <time>2017-02-11T09:15:13Z</time>
      </trkpt>
      <trkpt lat="59.02409341147" lon="12.234142869235">
        <ele>87.8</ele>
        <time>2017-02-11T09:15:25Z</time>
      </trkpt>
      <trkpt lat="59.02392996442" lon="12.234307741208">
        <ele>87.6</ele>
        <time>2017-02-11T09:15:37Z</time>
      </trkpt>
      <trkpt lat="59.023799458237" lon="12.234541596218">
        <ele>86.8</ele>
        <time>2017-02-11T09:15:49Z</time>
      </trkpt>
      <trkpt lat="59.023774647813" lon="12.234894474208">
        <ele>86.4</ele>
        <time>2017-02-11T09:16:01Z</time>
      </trkpt>
      <trkpt lat="59.023797195124" lon="12.2352438318">
        <ele>86.6</ele>
        <time>2017-02-11T09:16:13Z</time>
      </trkpt>
      <trkpt lat="59.023837679701" lon="12.235608612088">
        <ele>86.8</ele>
        <time>2017-02-11T09:16:26Z</time>
      </trkpt>
      <trkpt lat="59.023937340492" lon="12.235924106804">
        <ele>87</ele>
        <time>2017-02-11T09:16:39Z</time>
      </trkpt>
      <trkpt lat="59.023987380435" lon="12.236281930115">
        <ele>89.8</ele>
        <time>2017-02-11T09:16:51Z</time>
      </trkpt>
      <trkpt lat="59.024035408722" lon="12.236644279652">
        <ele>92.2</ele>
        <time>2017-02-11T09:17:04Z</time>
      </trkpt>
      <trkpt lat="59.024046640468" lon="12.236964719689">
        <ele>94</ele>
        <time>2017-02-11T09:17:16Z</time>
      </trkpt>
      <trkpt lat="59.024191060605" lon="12.236779060604">
        <ele>91.6</ele>
        <time>2017-02-11T09:17:31Z</time>
      </trkpt>
      <trkpt lat="59.024271610664" lon="12.236677555795">
        <ele>92.2</ele>
        <time>2017-02-11T09:17:38Z</time>
      </trkpt>
      <trkpt lat="59.024190892967" lon="12.236963546223">
        <ele>94.4</ele>
        <time>2017-02-11T09:17:50Z</time>
      </trkpt>
      <trkpt lat="59.024113276573" lon="12.237298738404">
        <ele>96</ele>
        <time>2017-02-11T09:18:03Z</time>
      </trkpt>
      <trkpt lat="59.023996684344" lon="12.237595541483">
        <ele>98.8</ele>
        <time>2017-02-11T09:18:16Z</time>
      </trkpt>
      <trkpt lat="59.023908842032" lon="12.237732250272">
        <ele>101.2</ele>
        <time>2017-02-11T09:18:24Z</time>
      </trkpt>
      <trkpt lat="59.024015543619" lon="12.238026371143">
        <ele>100.2</ele>
        <time>2017-02-11T09:18:38Z</time>
      </trkpt>
      <trkpt lat="59.024134566599" lon="12.238313535037">
        <ele>98.2</ele>
        <time>2017-02-11T09:18:51Z</time>
      </trkpt>
      <trkpt lat="59.024242274014" lon="12.238622659509">
        <ele>103.4</ele>
        <time>2017-02-11T09:19:03Z</time>
      </trkpt>
      <trkpt lat="59.024345790479" lon="12.238927090117">
        <ele>108</ele>
        <time>2017-02-11T09:19:15Z</time>
      </trkpt>
      <trkpt lat="59.02444042213" lon="12.23922607249">
        <ele>111.2</ele>
        <time>2017-02-11T09:19:27Z</time>
      </trkpt>
      <trkpt lat="59.024527174795" lon="12.239558079549">
        <ele>112.8</ele>
        <time>2017-02-11T09:19:40Z</time>
      </trkpt>
      <trkpt lat="59.024576292729" lon="12.239916489593">
        <ele>113.6</ele>
        <time>2017-02-11T09:19:53Z</time>
      </trkpt>
      <trkpt lat="59.024583082068" lon="12.240049007432">
        <ele>113.4</ele>
        <time>2017-02-11T09:19:58Z</time>
      </trkpt>
      <trkpt lat="59.024704032885" lon="12.240276911293">
        <ele>114.8</ele>
        <time>2017-02-11T09:20:11Z</time>
      </trkpt>
      <trkpt lat="59.024705373989" lon="12.240641859219">
        <ele>114.4</ele>
        <time>2017-02-11T09:20:22Z</time>
      </trkpt>
      <trkpt lat="59.024712247147" lon="12.240995743037">
        <ele>114.6</ele>
        <time>2017-02-11T09:20:34Z</time>
      </trkpt>
      <trkpt lat="59.024717108649" lon="12.241346022638">
        <ele>115</ele>
        <time>2017-02-11T09:20:46Z</time>
      </trkpt>
      <trkpt lat="59.024739320684" lon="12.241713904229">
        <ele>116.8</ele>
        <time>2017-02-11T09:20:59Z</time>
      </trkpt>
      <trkpt lat="59.024746780575" lon="12.242093436661">
        <ele>117.2</ele>
        <time>2017-02-11T09:21:11Z</time>
      </trkpt>
      <trkpt lat="59.024784331487" lon="12.242434579991">
        <ele>117.2</ele>
        <time>2017-02-11T09:21:23Z</time>
      </trkpt>
      <trkpt lat="59.024961524853" lon="12.242505742322">
        <ele>115.2</ele>
        <time>2017-02-11T09:21:35Z</time>
      </trkpt>
      <trkpt lat="59.02514533992" lon="12.24247824969">
        <ele>116.6</ele>
        <time>2017-02-11T09:21:46Z</time>
      </trkpt>
      <trkpt lat="59.025332843023" lon="12.24243131105">
        <ele>120.2</ele>
        <time>2017-02-11T09:21:57Z</time>
      </trkpt>
      <trkpt lat="59.025521854868" lon="12.242408093187">
        <ele>116.6</ele>
        <time>2017-02-11T09:22:09Z</time>
      </trkpt>
      <trkpt lat="59.025714973844" lon="12.242359561986">
        <ele>113</ele>
        <time>2017-02-11T09:22:22Z</time>
      </trkpt>
      <trkpt lat="59.025894430323" lon="12.242305079636">
        <ele>112.8</ele>
        <time>2017-02-11T09:22:34Z</time>
      </trkpt>
      <trkpt lat="59.026084699453" lon="12.242268618371">
        <ele>111.6</ele>
        <time>2017-02-11T09:22:46Z</time>
      </trkpt>
      <trkpt lat="59.026271280547" lon="12.242242969757">
        <ele>110.8</ele>
        <time>2017-02-11T09:22:58Z</time>
      </trkpt>
      <trkpt lat="59.026464231885" lon="12.24220416156">
        <ele>111.6</ele>
        <time>2017-02-11T09:23:10Z</time>
      </trkpt>
      <trkpt lat="59.026643101631" lon="12.242171975064">
        <ele>113.6</ele>
        <time>2017-02-11T09:23:22Z</time>
      </trkpt>
      <trkpt lat="59.026836723521" lon="12.242126880442">
        <ele>114</ele>
        <time>2017-02-11T09:23:33Z</time>
      </trkpt>
      <trkpt lat="59.027028082298" lon="12.242108440262">
        <ele>114.6</ele>
        <time>2017-02-11T09:23:45Z</time>
      </trkpt>
      <trkpt lat="59.027217261781" lon="12.242071476083">
        <ele>116.2</ele>
        <time>2017-02-11T09:23:57Z</time>
      </trkpt>
      <trkpt lat="59.027397053536" lon="12.242045995107">
        <ele>117.6</ele>
        <time>2017-02-11T09:24:09Z</time>
      </trkpt>
      <trkpt lat="59.027579778956" lon="12.242021939054">
        <ele>118.6</ele>
        <time>2017-02-11T09:24:21Z</time>
      </trkpt>
      <trkpt lat="59.027762504376" lon="12.2419744975">
        <ele>118.8</ele>
        <time>2017-02-11T09:24:33Z</time>
      </trkpt>
      <trkpt lat="59.02795076185" lon="12.241951698732">
        <ele>118.2</ele>
        <time>2017-02-11T09:24:45Z</time>
      </trkpt>
      <trkpt lat="59.028131056519" lon="12.241921188616">
        <ele>117.6</ele>
        <time>2017-02-11T09:24:57Z</time>
      </trkpt>
      <trkpt lat="59.028320822735" lon="12.241890762319">
        <ele>119.4</ele>
        <time>2017-02-11T09:25:09Z</time>
      </trkpt>
      <trkpt lat="59.028462225388" lon="12.241694793497">
        <ele>121.8</ele>
        <time>2017-02-11T09:25:21Z</time>
      </trkpt>
      <trkpt lat="59.02842182463" lon="12.24133495853">
        <ele>124.2</ele>
        <time>2017-02-11T09:25:34Z</time>
      </trkpt>
      <trkpt lat="59.028357786914" lon="12.240998928159">
        <ele>125.2</ele>
        <time>2017-02-11T09:25:46Z</time>
      </trkpt>
      <trkpt lat="59.028260389236" lon="12.240697179759">
        <ele>125.6</ele>
        <time>2017-02-11T09:25:58Z</time>
      </trkpt>
      <trkpt lat="59.028200291013" lon="12.240367184356">
        <ele>126</ele>
        <time>2017-02-11T09:26:10Z</time>
      </trkpt>
      <trkpt lat="59.028121584972" lon="12.240042218093">
        <ele>126.6</ele>
        <time>2017-02-11T09:26:22Z</time>
      </trkpt>
      <trkpt lat="59.028029803167" lon="12.239721023685">
        <ele>123.8</ele>
        <time>2017-02-11T09:26:34Z</time>
      </trkpt>
      <trkpt lat="59.027898374975" lon="12.239487671589">
        <ele>119.6</ele>
        <time>2017-02-11T09:26:47Z</time>
      </trkpt>
      <trkpt lat="59.027714476089" lon="12.239437212551">
        <ele>118.2</ele>
        <time>2017-02-11T09:26:59Z</time>
      </trkpt>
      <trkpt lat="59.027670387295" lon="12.239408127358">
        <ele>117.4</ele>
        <time>2017-02-11T09:27:02Z</time>
      </trkpt>
      <trkpt lat="59.027582544983" lon="12.239079640697">
        <ele>119.2</ele>
        <time>2017-02-11T09:27:15Z</time>
      </trkpt>
      <trkpt lat="59.027460672157" lon="12.238840169814">
        <ele>120.4</ele>
        <time>2017-02-11T09:27:28Z</time>
      </trkpt>
      <trkpt lat="59.027270822122" lon="12.238801864531">
        <ele>118.4</ele>
        <time>2017-02-11T09:27:41Z</time>
      </trkpt>
      <trkpt lat="59.027090359815" lon="12.238773785166">
        <ele>115.2</ele>
        <time>2017-02-11T09:27:54Z</time>
      </trkpt>
      <trkpt lat="59.026899084857" lon="12.238742772136">
        <ele>113.6</ele>
        <time>2017-02-11T09:28:06Z</time>
      </trkpt>
      <trkpt lat="59.02683513096" lon="12.238715950056">
        <ele>113.6</ele>
        <time>2017-02-11T09:28:10Z</time>
      </trkpt>
      <trkpt lat="59.026721640034" lon="12.238407412317">
        <ele>112.2</ele>
        <time>2017-02-11T09:28:23Z</time>
      </trkpt>
      <trkpt lat="59.026600186303" lon="12.238131480169">
        <ele>111.4</ele>
        <time>2017-02-11T09:28:34Z</time>
      </trkpt>
      <trkpt lat="59.026517708407" lon="12.237823864439">
        <ele>113</ele>
        <time>2017-02-11T09:28:45Z</time>
      </trkpt>
      <trkpt lat="59.0265635574" lon="12.237468304241">
        <ele>111.6</ele>
        <time>2017-02-11T09:28:57Z</time>
      </trkpt>
      <trkpt lat="59.026653411368" lon="12.237147864204">
        <ele>111.2</ele>
        <time>2017-02-11T09:29:09Z</time>
      </trkpt>
      <trkpt lat="59.026756257281" lon="12.236857012274">
        <ele>110.8</ele>
        <time>2017-02-11T09:29:20Z</time>
      </trkpt>
      <trkpt lat="59.026884416532" lon="12.236581163945">
        <ele>107.8</ele>
        <time>2017-02-11T09:29:32Z</time>
      </trkpt>
      <trkpt lat="59.027015006534" lon="12.23633599337">
        <ele>107</ele>
        <time>2017-02-11T09:29:44Z</time>
      </trkpt>
      <trkpt lat="59.027149787486" lon="12.236105239663">
        <ele>107.2</ele>
        <time>2017-02-11T09:29:56Z</time>
      </trkpt>
      <trkpt lat="59.027320275332" lon="12.2359479114">
        <ele>104</ele>
        <time>2017-02-11T09:30:09Z</time>
      </trkpt>
      <trkpt lat="59.027481543088" lon="12.235761414125">
        <ele>102.2</ele>
        <time>2017-02-11T09:30:21Z</time>
      </trkpt>
      <trkpt lat="59.0275945311" lon="12.235472909127">
        <ele>102.2</ele>
        <time>2017-02-11T09:30:33Z</time>
      </trkpt>
      <trkpt lat="59.027691258226" lon="12.235183649758">
        <ele>103.4</ele>
        <time>2017-02-11T09:30:45Z</time>
      </trkpt>
      <trkpt lat="59.027881108261" lon="12.235128413037">
        <ele>102.8</ele>
        <time>2017-02-11T09:30:57Z</time>
      </trkpt>
      <trkpt lat="59.028071042115" lon="12.235086838813">
        <ele>103</ele>
        <time>2017-02-11T09:31:09Z</time>
      </trkpt>
      <trkpt lat="59.028254018992" lon="12.235003941822">
        <ele>102.2</ele>
        <time>2017-02-11T09:31:22Z</time>
      </trkpt>
      <trkpt lat="59.028424087743" lon="12.234827586646">
        <ele>101.8</ele>
        <time>2017-02-11T09:31:35Z</time>
      </trkpt>
      <trkpt lat="59.028594743227" lon="12.234654835687">
        <ele>102.6</ele>
        <time>2017-02-11T09:31:48Z</time>
      </trkpt>
      <trkpt lat="59.028744779237" lon="12.234449479137">
        <ele>101.4</ele>
        <time>2017-02-11T09:32:00Z</time>
      </trkpt>
      <trkpt lat="59.028920128585" lon="12.234390889656">
        <ele>102</ele>
        <time>2017-02-11T09:32:12Z</time>
      </trkpt>
      <trkpt lat="59.029105033299" lon="12.234330707614">
        <ele>100</ele>
        <time>2017-02-11T09:32:24Z</time>
      </trkpt>
      <trkpt lat="59.029284070683" lon="12.234231549737">
        <ele>98</ele>
        <time>2017-02-11T09:32:37Z</time>
      </trkpt>
      <trkpt lat="59.029472663433" lon="12.234203302734">
        <ele>100</ele>
        <time>2017-02-11T09:32:50Z</time>
      </trkpt>
      <trkpt lat="59.029654718301" lon="12.23422710733">
        <ele>97.2</ele>
        <time>2017-02-11T09:33:02Z</time>
      </trkpt>
      <trkpt lat="59.029834007142" lon="12.234229705719">
        <ele>96</ele>
        <time>2017-02-11T09:33:14Z</time>
      </trkpt>
      <trkpt lat="59.030027461394" lon="12.234198776508">
        <ele>93.6</ele>
        <time>2017-02-11T09:33:27Z</time>
      </trkpt>
      <trkpt lat="59.030198033059" lon="12.234107329979">
        <ele>92.2</ele>
        <time>2017-02-11T09:33:40Z</time>
      </trkpt>
      <trkpt lat="59.030368185629" lon="12.233941200721">
        <ele>91.8</ele>
        <time>2017-02-11T09:33:52Z</time>
      </trkpt>
      <trkpt lat="59.030521071485" lon="12.233724780063">
        <ele>93.8</ele>
        <time>2017-02-11T09:34:04Z</time>
      </trkpt>
      <trkpt lat="59.030576224387" lon="12.23336460982">
        <ele>95.4</ele>
        <time>2017-02-11T09:34:16Z</time>
      </trkpt>
      <trkpt lat="59.030723913465" lon="12.233135364855">
        <ele>94.6</ele>
        <time>2017-02-11T09:34:28Z</time>
      </trkpt>
      <trkpt lat="59.030894652768" lon="12.233087420387">
        <ele>93.6</ele>
        <time>2017-02-11T09:34:39Z</time>
      </trkpt>
      <trkpt lat="59.031090034857" lon="12.233164114772">
        <ele>94</ele>
        <time>2017-02-11T09:34:51Z</time>
      </trkpt>
      <trkpt lat="59.031278040874" lon="12.233203844978">
        <ele>98</ele>
        <time>2017-02-11T09:35:05Z</time>
      </trkpt>
      <trkpt lat="59.031468729099" lon="12.233226643746">
        <ele>98.8</ele>
        <time>2017-02-11T09:35:17Z</time>
      </trkpt>
      <trkpt lat="59.031654472003" lon="12.233204683168">
        <ele>98.2</ele>
        <time>2017-02-11T09:35:29Z</time>
      </trkpt>
      <trkpt lat="59.031834012301" lon="12.233174675966">
        <ele>98.6</ele>
        <time>2017-02-11T09:35:40Z</time>
      </trkpt>
      <trkpt lat="59.032014139332" lon="12.233107034033">
        <ele>97</ele>
        <time>2017-02-11T09:35:52Z</time>
      </trkpt>
      <trkpt lat="59.03220373791" lon="12.233034279141">
        <ele>94.8</ele>
        <time>2017-02-11T09:36:04Z</time>
      </trkpt>
      <trkpt lat="59.032380931276" lon="12.232970576701">
        <ele>92.6</ele>
        <time>2017-02-11T09:36:15Z</time>
      </trkpt>
      <trkpt lat="59.032451171598" lon="12.232817942302">
        <ele>93.2</ele>
        <time>2017-02-11T09:36:22Z</time>
      </trkpt>
      <trkpt lat="59.032424600975" lon="12.232446288856">
        <ele>91.2</ele>
        <time>2017-02-11T09:36:34Z</time>
      </trkpt>
      <trkpt lat="59.032371795005" lon="12.232085028966">
        <ele>92.4</ele>
        <time>2017-02-11T09:36:47Z</time>
      </trkpt>
      <trkpt lat="59.032329382591" lon="12.231740029962">
        <ele>92.2</ele>
        <time>2017-02-11T09:36:59Z</time>
      </trkpt>
      <trkpt lat="59.032288311281" lon="12.231368627973">
        <ele>92</ele>
        <time>2017-02-11T09:37:11Z</time>
      </trkpt>
      <trkpt lat="59.03225319112" lon="12.231020527666">
        <ele>88.8</ele>
        <time>2017-02-11T09:37:22Z</time>
      </trkpt>
      <trkpt lat="59.032077422677" lon="12.231041482416">
        <ele>88.6</ele>
        <time>2017-02-11T09:37:34Z</time>
      </trkpt>
      <trkpt lat="59.03183409612" lon="12.231485471659">
        <ele>95.8</ele>
        <time>2017-02-11T09:37:54Z</time>
      </trkpt>
      <trkpt lat="59.031651705976" lon="12.231563674786">
        <ele>95.4</ele>
        <time>2017-02-11T09:38:05Z</time>
      </trkpt>
      <trkpt lat="59.031467723271" lon="12.231513551024">
        <ele>93.2</ele>
        <time>2017-02-11T09:38:16Z</time>
      </trkpt>
      <trkpt lat="59.031312658121" lon="12.231317917478">
        <ele>91.8</ele>
        <time>2017-02-11T09:38:27Z</time>
      </trkpt>
      <trkpt lat="59.031177458074" lon="12.231065873745">
        <ele>90</ele>
        <time>2017-02-11T09:38:38Z</time>
      </trkpt>
      <trkpt lat="59.030999929432" lon="12.230908796939">
        <ele>90.6</ele>
        <time>2017-02-11T09:38:50Z</time>
      </trkpt>
      <trkpt lat="59.030814521804" lon="12.230859008453">
        <ele>91.6</ele>
        <time>2017-02-11T09:39:01Z</time>
      </trkpt>
      <trkpt lat="59.030636490248" lon="12.230931008974">
        <ele>93.4</ele>
        <time>2017-02-11T09:39:11Z</time>
      </trkpt>
      <trkpt lat="59.030548061203" lon="12.23123309265">
        <ele>94</ele>
        <time>2017-02-11T09:39:23Z</time>
      </trkpt>
      <trkpt lat="59.030495422871" lon="12.231568955383">
        <ele>93.2</ele>
        <time>2017-02-11T09:39:34Z</time>
      </trkpt>
      <trkpt lat="59.030366090154" lon="12.23179551814">
        <ele>95.6</ele>
        <time>2017-02-11T09:39:45Z</time>
      </trkpt>
      <trkpt lat="59.030179928155" lon="12.231782442376">
        <ele>97.4</ele>
        <time>2017-02-11T09:39:56Z</time>
      </trkpt>
      <trkpt lat="59.030038525502" lon="12.23153651743">
        <ele>94.4</ele>
        <time>2017-02-11T09:40:08Z</time>
      </trkpt>
      <trkpt lat="59.029925788947" lon="12.231246419871">
        <ele>91.4</ele>
        <time>2017-02-11T09:40:20Z</time>
      </trkpt>
      <trkpt lat="59.029801820646" lon="12.230992783577">
        <ele>90.2</ele>
        <time>2017-02-11T09:40:32Z</time>
      </trkpt>
      <trkpt lat="59.029622447986" lon="12.230974343397">
        <ele>91</ele>
        <time>2017-02-11T09:40:44Z</time>
      </trkpt>
      <trkpt lat="59.029449110294" lon="12.231138712456">
        <ele>92.2</ele>
        <time>2017-02-11T09:40:57Z</time>
      </trkpt>
      <trkpt lat="59.02929773318" lon="12.231331831432">
        <ele>93</ele>
        <time>2017-02-11T09:41:10Z</time>
      </trkpt>
      <trkpt lat="59.029129676085" lon="12.231487483315">
        <ele>93.6</ele>
        <time>2017-02-11T09:41:22Z</time>
      </trkpt>
      <trkpt lat="59.029080474332" lon="12.231789734629">
        <ele>94.2</ele>
        <time>2017-02-11T09:41:33Z</time>
      </trkpt>
      <trkpt lat="59.028935467462" lon="12.232010178599">
        <ele>95</ele>
        <time>2017-02-11T09:41:45Z</time>
      </trkpt>
      <trkpt lat="59.028843937114" lon="12.232101541309">
        <ele>96.8</ele>
        <time>2017-02-11T09:41:52Z</time>
      </trkpt>
      <trkpt lat="59.028815606292" lon="12.23207966455">
        <ele>97.4</ele>
        <time>2017-02-11T09:41:54Z</time>
      </trkpt>
      <trkpt lat="59.028715610225" lon="12.23177204882">
        <ele>96.8</ele>
        <time>2017-02-11T09:42:06Z</time>
      </trkpt>
      <trkpt lat="59.028625337162" lon="12.231461331787">
        <ele>94.6</ele>
        <time>2017-02-11T09:42:18Z</time>
      </trkpt>
      <trkpt lat="59.028511008046" lon="12.231179616128">
        <ele>94.2</ele>
        <time>2017-02-11T09:42:31Z</time>
      </trkpt>
      <trkpt lat="59.028394331998" lon="12.230908629301">
        <ele>95.6</ele>
        <time>2017-02-11T09:42:43Z</time>
      </trkpt>
      <trkpt lat="59.028266508023" lon="12.230651724066">
        <ele>91.8</ele>
        <time>2017-02-11T09:42:55Z</time>
      </trkpt>
      <trkpt lat="59.028156034581" lon="12.230358106109">
        <ele>93</ele>
        <time>2017-02-11T09:43:09Z</time>
      </trkpt>
      <trkpt lat="59.028031060452" lon="12.23007722864">
        <ele>92.2</ele>
        <time>2017-02-11T09:43:21Z</time>
      </trkpt>
      <trkpt lat="59.027909355264" lon="12.229816132455">
        <ele>91.4</ele>
        <time>2017-02-11T09:43:32Z</time>
      </trkpt>
      <trkpt lat="59.027759905987" lon="12.229576074839">
        <ele>92.8</ele>
        <time>2017-02-11T09:43:45Z</time>
      </trkpt>
      <trkpt lat="59.027602913" lon="12.22936476714">
        <ele>91.4</ele>
        <time>2017-02-11T09:43:59Z</time>
      </trkpt>
      <trkpt lat="59.027595704566" lon="12.229017253566">
        <ele>90.2</ele>
        <time>2017-02-11T09:44:11Z</time>
      </trkpt>
      <trkpt lat="59.027557399283" lon="12.228674852951">
        <ele>92.4</ele>
        <time>2017-02-11T09:44:24Z</time>
      </trkpt>
      <trkpt lat="59.027516076516" lon="12.22834804267">
        <ele>90.2</ele>
        <time>2017-02-11T09:44:35Z</time>
      </trkpt>
      <trkpt lat="59.027537198904" lon="12.228001534924">
        <ele>89.2</ele>
        <time>2017-02-11T09:44:46Z</time>
      </trkpt>
      <trkpt lat="59.027584389001" lon="12.227645555631">
        <ele>90.8</ele>
        <time>2017-02-11T09:44:58Z</time>
      </trkpt>
      <trkpt lat="59.027682960145" lon="12.227322684843">
        <ele>93.6</ele>
        <time>2017-02-11T09:45:11Z</time>
      </trkpt>
      <trkpt lat="59.027740879074" lon="12.226993276173">
        <ele>93.2</ele>
        <time>2017-02-11T09:45:24Z</time>
      </trkpt>
      <trkpt lat="59.027738280685" lon="12.226643918581">
        <ele>94.6</ele>
        <time>2017-02-11T09:45:38Z</time>
      </trkpt>
      <trkpt lat="59.027713302623" lon="12.226282826329">
        <ele>94.4</ele>
        <time>2017-02-11T09:45:51Z</time>
      </trkpt>
      <trkpt lat="59.027720930152" lon="12.226261117208">
        <ele>94.6</ele>
        <time>2017-02-11T09:45:52Z</time>
      </trkpt>
      <trkpt lat="59.027906840694" lon="12.226301685604">
        <ele>98.6</ele>
        <time>2017-02-11T09:46:05Z</time>
      </trkpt>
      <trkpt lat="59.028087722096" lon="12.226249382548">
        <ele>100.2</ele>
        <time>2017-02-11T09:46:18Z</time>
      </trkpt>
      <trkpt lat="59.02827514138" lon="12.226290118582">
        <ele>98.2</ele>
        <time>2017-02-11T09:46:31Z</time>
      </trkpt>
      <trkpt lat="59.028455100773" lon="12.226398161273">
        <ele>99.4</ele>
        <time>2017-02-11T09:46:44Z</time>
      </trkpt>
      <trkpt lat="59.028629863388" lon="12.226527996904">
        <ele>99.2</ele>
        <time>2017-02-11T09:46:57Z</time>
      </trkpt>
      <trkpt lat="59.028798591035" lon="12.226689013203">
        <ele>99.4</ele>
        <time>2017-02-11T09:47:10Z</time>
      </trkpt>
      <trkpt lat="59.028928259028" lon="12.22648977544">
        <ele>97</ele>
        <time>2017-02-11T09:47:23Z</time>
      </trkpt>
      <trkpt lat="59.029026578715" lon="12.226164306263">
        <ele>93.6</ele>
        <time>2017-02-11T09:47:36Z</time>
      </trkpt>
      <trkpt lat="59.029042839601" lon="12.225865742985">
        <ele>95.4</ele>
        <time>2017-02-11T09:47:48Z</time>
      </trkpt>
      <trkpt lat="59.028987938156" lon="12.225528958243">
        <ele>97</ele>
        <time>2017-02-11T09:48:03Z</time>
      </trkpt>
      <trkpt lat="59.028832370092" lon="12.225458885559">
        <ele>101</ele>
        <time>2017-02-11T09:48:37Z</time>
      </trkpt>
      <trkpt lat="59.028831531902" lon="12.225659799702">
        <ele>105.8</ele>
        <time>2017-02-11T09:49:09Z</time>
      </trkpt>
      <trkpt lat="59.028886684804" lon="12.225596013443">
        <ele>93</ele>
        <time>2017-02-11T09:50:16Z</time>
      </trkpt>
      <trkpt lat="59.028879979284" lon="12.225405492856">
        <ele>91.6</ele>
        <time>2017-02-11T09:51:25Z</time>
      </trkpt>
      <trkpt lat="59.028709742895" lon="12.2251604061">
        <ele>104.8</ele>
        <time>2017-02-11T09:51:39Z</time>
      </trkpt>
      <trkpt lat="59.028540177058" lon="12.224993773928">
        <ele>107.2</ele>
        <time>2017-02-11T09:51:48Z</time>
      </trkpt>
      <trkpt lat="59.028399780233" lon="12.22476394223">
        <ele>106.8</ele>
        <time>2017-02-11T09:51:58Z</time>
      </trkpt>
      <trkpt lat="59.028289642067" lon="12.224473341757">
        <ele>106.8</ele>
        <time>2017-02-11T09:52:09Z</time>
      </trkpt>
      <trkpt lat="59.028099708213" lon="12.22442363709">
        <ele>104.6</ele>
        <time>2017-02-11T09:52:21Z</time>
      </trkpt>
      <trkpt lat="59.027918491535" lon="12.224477532707">
        <ele>103</ele>
        <time>2017-02-11T09:52:33Z</time>
      </trkpt>
      <trkpt lat="59.027833499069" lon="12.224441825813">
        <ele>104.2</ele>
        <time>2017-02-11T09:52:39Z</time>
      </trkpt>
      <trkpt lat="59.027688743656" lon="12.224237726548">
        <ele>107</ele>
        <time>2017-02-11T09:52:52Z</time>
      </trkpt>
      <trkpt lat="59.027507610797" lon="12.224246779">
        <ele>105.6</ele>
        <time>2017-02-11T09:53:04Z</time>
      </trkpt>
      <trkpt lat="59.027323628092" lon="12.224276534745">
        <ele>105.2</ele>
        <time>2017-02-11T09:53:17Z</time>
      </trkpt>
      <trkpt lat="59.027137046998" lon="12.22429539402">
        <ele>104.8</ele>
        <time>2017-02-11T09:53:30Z</time>
      </trkpt>
      <trkpt lat="59.027132436953" lon="12.224293298545">
        <ele>105</ele>
        <time>2017-02-11T09:53:31Z</time>
      </trkpt>
      <trkpt lat="59.027129503288" lon="12.224277624392">
        <ele>105.6</ele>
        <time>2017-02-11T09:53:33Z</time>
      </trkpt>
      <trkpt lat="59.027025148633" lon="12.224165809846">
        <ele>104.8</ele>
        <time>2017-02-11T09:54:17Z</time>
      </trkpt>
    </trkseg>
  </trk>
</gpx>